createdAt,value
2023-02-09T00:00:48.160Z,-3.05
2023-02-09T00:03:51.046Z,-2.92
2023-02-09T00:06:53.352Z,-3.08
2023-02-09T00:09:56.115Z,-3.16
2023-02-09T00:13:16.888Z,-3.14
2023-02-09T00:16:25.917Z,-3.25
2023-02-09T00:19:28.527Z,-3.22
2023-02-09T00:22:31.219Z,-3.07
2023-02-09T00:25:33.442Z,-3.28
2023-02-09T00:28:36.163Z,-3.31
2023-02-09T00:31:39.295Z,-3.36
2023-02-09T00:34:41.982Z,-3.44
2023-02-09T00:37:44.161Z,-3.51
2023-02-09T00:40:47.999Z,-3.60
2023-02-09T00:43:50.468Z,-3.62
2023-02-09T00:46:53.157Z,-3.51
2023-02-09T00:49:55.421Z,-3.59
2023-02-09T00:52:58.179Z,-3.50
2023-02-09T00:56:00.380Z,-3.47
2023-02-09T00:59:02.909Z,-3.41
2023-02-09T01:02:05.176Z,-3.30
2023-02-09T01:05:08.055Z,-3.42
2023-02-09T01:08:10.495Z,-3.43
2023-02-09T01:11:15.680Z,-3.48
2023-02-09T01:14:18.067Z,-3.52
2023-02-09T01:17:20.582Z,-3.45
2023-02-09T01:20:22.828Z,-3.37
2023-02-09T01:23:25.343Z,-3.45
2023-02-09T01:26:28.018Z,-3.48
2023-02-09T01:29:30.528Z,-3.55
2023-02-09T01:32:32.802Z,-3.61
2023-02-09T01:35:35.370Z,-3.62
2023-02-09T01:38:37.569Z,-3.53
2023-02-09T01:41:40.931Z,-3.47
2023-02-09T01:44:44.646Z,-3.55
2023-02-09T01:47:54.394Z,-3.47
2023-02-09T01:51:00.496Z,-3.41
2023-02-09T01:54:08.129Z,-3.58
2023-02-09T01:57:13.609Z,-3.78
2023-02-09T02:00:18.463Z,-3.80
2023-02-09T02:03:25.647Z,-3.65
2023-02-09T02:06:28.011Z,-3.76
2023-02-09T02:09:30.574Z,-3.78
2023-02-09T02:12:33.562Z,-3.82
2023-02-09T02:15:48.159Z,-3.95
2023-02-09T02:19:15.437Z,-4.02
2023-02-09T02:22:23.944Z,-3.96
2023-02-09T02:25:43.902Z,-3.91
2023-02-09T02:29:01.588Z,-3.95
2023-02-09T02:32:17.060Z,-4.10
2023-02-09T02:36:07.367Z,-4.18
2023-02-09T02:39:16.124Z,-4.20
2023-02-09T02:42:47.832Z,-4.14
2023-02-09T02:45:55.376Z,-4.13
2023-02-09T02:49:05.732Z,-4.10
2023-02-09T02:52:10.266Z,-4.21
2023-02-09T02:55:16.819Z,-4.28
2023-02-09T02:58:22.509Z,-4.19
2023-02-09T03:01:30.049Z,-4.28
2023-02-09T03:04:33.932Z,-4.39
2023-02-09T03:07:36.487Z,-4.40
2023-02-09T03:10:41.226Z,-4.32
2023-02-09T03:14:13.151Z,-4.32
2023-02-09T03:17:43.350Z,-4.31
2023-02-09T03:20:54.776Z,-4.40
2023-02-09T03:24:15.332Z,-4.19
2023-02-09T03:27:23.219Z,-4.26
2023-02-09T03:30:26.342Z,-4.25
2023-02-09T03:33:31.175Z,-4.28
2023-02-09T03:36:35.941Z,-4.32
2023-02-09T03:39:38.596Z,-4.46
2023-02-09T03:42:41.210Z,-4.41
2023-02-09T04:30:58.955Z,-4.42
2023-02-09T04:34:02.023Z,-4.44
2023-02-09T04:37:04.255Z,-4.50
2023-02-09T04:40:07.843Z,-4.49
2023-02-09T04:43:10.121Z,-4.47
2023-02-09T04:46:14.600Z,-4.40
2023-02-09T04:49:16.832Z,-4.58
2023-02-09T04:52:19.614Z,-4.77
2023-02-09T04:55:21.808Z,-4.88
2023-02-09T04:58:42.783Z,-4.96
2023-02-09T05:01:45.037Z,-5.04
2023-02-09T05:04:47.636Z,-5.02
2023-02-09T05:07:49.904Z,-4.87
2023-02-09T05:10:53.643Z,-5.00
2023-02-09T05:13:56.208Z,-5.05
2023-02-09T05:16:59.632Z,-5.13
2023-02-09T05:20:02.029Z,-5.19
2023-02-09T05:23:04.858Z,-4.93
2023-02-09T05:26:07.039Z,-4.79
2023-02-09T05:29:09.660Z,-4.80
2023-02-09T05:32:12.334Z,-4.85
2023-02-09T05:35:15.122Z,-4.86
2023-02-09T05:38:18.213Z,-4.87
2023-02-09T05:41:39.493Z,-4.88
2023-02-09T05:44:46.945Z,-4.74
2023-02-09T05:47:49.687Z,-4.48
2023-02-09T05:50:52.227Z,-4.32
2023-02-09T05:53:54.941Z,-4.37
2023-02-09T05:56:57.274Z,-4.37
2023-02-09T05:59:59.922Z,-4.55
2023-02-09T06:03:02.647Z,-4.68
2023-02-09T06:06:05.509Z,-4.74
2023-02-09T06:09:08.058Z,-4.68
2023-02-09T06:12:11.083Z,-4.71
2023-02-09T06:15:16.435Z,-4.68
2023-02-09T06:18:19.385Z,-4.66
2023-02-09T06:21:21.929Z,-4.63
2023-02-09T06:24:24.609Z,-4.50
2023-02-09T06:27:26.952Z,-4.31
2023-02-09T06:30:29.649Z,-4.28
2023-02-09T06:33:33.433Z,-4.17
2023-02-09T06:36:36.264Z,-4.14
2023-02-09T06:39:38.549Z,-4.07
2023-02-09T06:42:44.467Z,-3.89
2023-02-09T06:45:46.777Z,-3.69
2023-02-09T06:48:49.372Z,-3.47
2023-02-09T06:51:52.187Z,-3.45
2023-02-09T06:54:55.624Z,-3.49
2023-02-09T06:57:58.759Z,-3.39
2023-02-09T07:01:03.301Z,-3.34
2023-02-09T07:04:05.730Z,-3.27
2023-02-09T07:07:08.387Z,-3.19
2023-02-09T07:10:15.025Z,-3.05
2023-02-09T07:13:17.695Z,-2.95
2023-02-09T07:16:20.861Z,-2.89
2023-02-09T07:19:23.375Z,-2.86
2023-02-09T07:22:25.887Z,-2.80
2023-02-09T07:25:28.875Z,-2.73
2023-02-09T07:28:33.215Z,-2.68
2023-02-09T07:31:36.029Z,-2.65
2023-02-09T07:34:38.640Z,-2.65
2023-02-09T07:37:41.650Z,-2.49
2023-02-09T07:40:47.092Z,-2.36
2023-02-09T07:43:49.744Z,-2.27
2023-02-09T07:46:52.223Z,-2.31
2023-02-09T07:49:55.176Z,-2.19
2023-02-09T07:52:58.033Z,-2.03
2023-02-09T07:56:00.795Z,-2.03
2023-02-09T07:59:03.306Z,-1.95
2023-02-09T08:02:09.267Z,-2.06
2023-02-09T08:05:28.274Z,-1.87
2023-02-09T08:08:30.573Z,-1.66
2023-02-09T08:11:53.071Z,-1.64
2023-02-09T08:14:55.431Z,-1.59
2023-02-09T08:18:02.017Z,-1.72
2023-02-09T08:21:07.681Z,-1.60
2023-02-09T08:24:12.529Z,-1.53
2023-02-09T08:27:15.475Z,-1.40
2023-02-09T08:30:18.766Z,-1.36
2023-02-09T08:33:21.085Z,-1.42
2023-02-09T08:36:23.908Z,-1.40
2023-02-09T08:39:26.236Z,-1.37
2023-02-09T08:42:30.644Z,-1.34
2023-02-09T08:45:35.162Z,-1.17
2023-02-09T08:48:40.749Z,-1.22
2023-02-09T08:51:43.345Z,-1.15
2023-02-09T08:54:45.985Z,-1.10
2023-02-09T08:57:48.621Z,-0.94
2023-02-09T09:00:53.066Z,-1.00
2023-02-09T09:03:55.790Z,-0.99
2023-02-09T09:06:59.833Z,-0.90
2023-02-09T09:10:02.720Z,-0.88
2023-02-09T09:13:05.614Z,-0.84
2023-02-09T09:16:18.730Z,-0.84
2023-02-09T09:19:21.450Z,-0.63
2023-02-09T09:22:24.296Z,-0.59
2023-02-09T09:25:26.801Z,-0.72
2023-02-09T09:28:29.753Z,-0.63
2023-02-09T09:31:33.557Z,-0.37
2023-02-09T09:34:36.098Z,-0.23
2023-02-09T09:37:38.683Z,-0.26
2023-02-09T09:40:44.856Z,-0.11
2023-02-09T09:43:47.921Z,0.11
2023-02-09T09:46:53.097Z,0.12
2023-02-09T09:49:55.819Z,0.74
2023-02-09T09:53:05.258Z,1.17
2023-02-09T09:56:10.733Z,1.48
2023-02-09T09:59:20.881Z,1.83
2023-02-09T10:02:30.879Z,2.25
2023-02-09T10:05:39.317Z,3.66
2023-02-09T10:09:26.281Z,4.31
2023-02-09T10:12:35.532Z,5.69
2023-02-09T10:15:37.960Z,6.01
2023-02-09T10:18:40.920Z,7.27
2023-02-09T10:21:43.173Z,8.55
2023-02-09T10:24:45.939Z,9.49
2023-02-09T10:27:48.136Z,7.83
2023-02-09T10:30:52.683Z,6.25
2023-02-09T10:34:04.180Z,5.35
2023-02-09T10:37:21.475Z,4.81
2023-02-09T10:40:32.668Z,6.09
2023-02-09T10:43:35.450Z,7.24
2023-02-09T10:46:38.075Z,6.62
2023-02-09T10:49:40.593Z,8.48
2023-02-09T10:52:55.938Z,8.68
2023-02-09T10:56:02.855Z,7.54
2023-02-09T10:59:17.758Z,8.12
2023-02-09T11:02:41.514Z,8.37
2023-02-09T11:05:46.665Z,7.03
2023-02-09T11:09:00.556Z,5.15
2023-02-09T11:12:03.220Z,6.17
2023-02-09T11:15:13.716Z,6.78
2023-02-09T11:18:23.482Z,8.21
2023-02-09T11:21:45.637Z,9.49
2023-02-09T11:25:12.798Z,10.16
2023-02-09T11:28:38.860Z,11.09
2023-02-09T11:31:59.523Z,11.67
2023-02-09T11:35:11.604Z,12.35
2023-02-09T11:38:20.875Z,13.76
2023-02-09T11:41:49.728Z,12.97
2023-02-09T11:45:11.752Z,12.19
2023-02-09T11:48:26.021Z,10.58
2023-02-09T11:51:30.413Z,10.57
2023-02-09T11:54:36.624Z,11.06
2023-02-09T11:57:48.682Z,11.79
2023-02-09T12:01:18.662Z,10.67
2023-02-09T12:04:24.232Z,12.12
2023-02-09T12:07:55.132Z,13.56
2023-02-09T12:11:08.177Z,10.99
2023-02-09T12:14:16.439Z,13.47
2023-02-09T12:17:47.222Z,13.69
2023-02-09T12:20:58.334Z,10.82
2023-02-09T12:24:01.516Z,12.62
2023-02-09T12:27:03.971Z,10.71
2023-02-09T12:30:42.275Z,9.82
2023-02-09T12:33:44.549Z,13.07
2023-02-09T12:37:09.063Z,12.63
2023-02-09T12:40:18.314Z,12.84
2023-02-09T12:43:29.694Z,11.14
2023-02-09T12:46:31.988Z,9.75
2023-02-09T12:49:35.146Z,9.32
2023-02-09T12:52:37.443Z,8.89
2023-02-09T12:55:40.096Z,8.63
2023-02-09T12:58:45.317Z,7.98
2023-02-09T13:02:05.963Z,7.92
2023-02-09T13:05:12.039Z,6.71
2023-02-09T13:08:28.538Z,6.09
2023-02-09T13:11:46.455Z,5.18
2023-02-09T13:14:50.817Z,5.04
2023-02-09T13:18:25.223Z,5.23
2023-02-09T13:22:01.893Z,5.45
2023-02-09T13:25:30.065Z,4.61
2023-02-09T13:28:32.833Z,4.63
2023-02-09T13:31:39.559Z,5.90
2023-02-09T13:35:06.402Z,7.19
2023-02-09T13:38:17.789Z,8.24
2023-02-09T13:41:40.915Z,8.56
2023-02-09T13:44:44.799Z,7.83
2023-02-09T13:47:47.717Z,6.28
2023-02-09T13:50:51.744Z,5.88
2023-02-09T13:53:59.798Z,7.28
2023-02-09T13:57:03.292Z,5.75
2023-02-09T14:00:26.732Z,6.54
2023-02-09T14:03:33.316Z,7.81
2023-02-09T14:06:44.370Z,8.39
2023-02-09T14:09:50.425Z,5.28
2023-02-09T14:12:59.962Z,4.87
2023-02-09T14:16:09.198Z,5.65
2023-02-09T14:19:32.349Z,6.68
2023-02-09T14:22:38.427Z,4.48
2023-02-09T14:25:42.188Z,4.83
2023-02-09T14:28:51.783Z,5.63
2023-02-09T14:31:59.922Z,5.10
2023-02-09T14:35:19.882Z,4.20
2023-02-09T14:38:42.651Z,4.57
2023-02-09T14:42:07.823Z,4.50
2023-02-09T14:45:13.377Z,3.86
2023-02-09T14:48:19.700Z,2.81
2023-02-09T14:51:22.897Z,2.72
2023-02-09T14:54:30.993Z,2.74
2023-02-09T14:57:36.273Z,2.82
2023-02-09T15:00:38.560Z,2.87
2023-02-09T15:03:42.751Z,2.32
2023-02-09T15:06:48.116Z,2.12
2023-02-09T15:09:51.091Z,2.11
2023-02-09T15:12:54.852Z,2.04
2023-02-09T15:15:58.256Z,1.85
2023-02-09T15:19:01.098Z,2.05
2023-02-09T15:22:07.715Z,2.03
2023-02-09T15:25:13.670Z,1.83
2023-02-09T15:28:28.437Z,1.78
2023-02-09T15:31:31.016Z,1.65
2023-02-09T15:34:33.910Z,1.47
2023-02-09T15:37:38.593Z,1.27
2023-02-09T15:41:08.571Z,1.04
2023-02-09T15:44:36.133Z,0.82
2023-02-09T15:47:52.900Z,0.80
2023-02-09T15:50:55.315Z,0.67
2023-02-09T15:54:01.702Z,0.54
2023-02-09T15:57:04.387Z,0.38
2023-02-09T16:00:22.424Z,0.42
2023-02-09T16:03:25.053Z,0.22
2023-02-09T16:06:27.545Z,0.14
2023-02-09T16:09:31.053Z,0.10
2023-02-09T16:12:33.493Z,-0.04
2023-02-09T16:15:36.062Z,-0.01
2023-02-09T16:18:38.304Z,-0.13
2023-02-09T16:21:43.995Z,-0.29
2023-02-09T16:24:47.108Z,-0.36
2023-02-09T16:27:50.695Z,-0.41
2023-02-09T16:30:57.667Z,-0.56
2023-02-09T16:34:00.437Z,-0.70
2023-02-09T16:37:03.945Z,-0.84
2023-02-09T16:40:27.359Z,-1.01
2023-02-09T16:43:29.805Z,-1.03
2023-02-09T16:46:33.710Z,-1.07
2023-02-09T16:49:47.694Z,-1.24
2023-02-09T16:52:52.851Z,-1.32
2023-02-09T16:55:55.440Z,-1.43
2023-02-09T16:58:58.188Z,-1.54
2023-02-09T17:02:02.130Z,-1.58
2023-02-09T17:05:26.344Z,-1.61
2023-02-09T17:08:34.739Z,-1.64
2023-02-09T17:11:37.756Z,-1.63
2023-02-09T17:14:40.432Z,-1.68
2023-02-09T17:17:51.918Z,-1.77
2023-02-09T17:21:03.463Z,-1.79
2023-02-09T17:24:12.628Z,-1.72
2023-02-09T17:27:14.905Z,-1.76
2023-02-09T17:30:17.772Z,-1.82
2023-02-09T17:33:24.305Z,-1.91
2023-02-09T17:36:29.485Z,-1.86
2023-02-09T17:39:32.101Z,-1.85
2023-02-09T17:42:37.441Z,-1.91
2023-02-09T17:45:40.085Z,-1.91
2023-02-09T17:48:43.221Z,-1.98
2023-02-09T17:51:46.692Z,-2.05
2023-02-09T17:54:51.243Z,-2.10
2023-02-09T17:57:57.487Z,-2.13
2023-02-09T18:01:00.575Z,-2.14
2023-02-09T18:04:03.666Z,-2.01
2023-02-09T18:07:06.124Z,-2.00
2023-02-09T18:10:09.298Z,-2.10
2023-02-09T18:13:19.959Z,-2.21
2023-02-09T18:16:22.893Z,-2.30
2023-02-09T18:19:26.057Z,-2.39
2023-02-09T18:22:30.186Z,-2.40
2023-02-09T18:25:36.638Z,-2.50
2023-02-09T18:28:39.553Z,-2.52
2023-02-09T18:31:41.965Z,-2.60
2023-02-09T18:34:44.747Z,-2.70
2023-02-09T18:37:47.270Z,-2.71
2023-02-09T18:40:51.564Z,-2.77
2023-02-09T18:43:54.570Z,-2.78
2023-02-09T18:47:00.631Z,-2.79
2023-02-09T18:50:04.767Z,-2.84
2023-02-09T18:53:07.634Z,-2.77
2023-02-09T18:56:20.077Z,-2.75
2023-02-09T18:59:22.696Z,-2.77
2023-02-09T19:02:25.110Z,-2.82
2023-02-09T19:05:30.890Z,-2.89
2023-02-09T19:08:33.109Z,-2.94
2023-02-09T19:11:36.102Z,-2.94
2023-02-09T19:14:45.657Z,-2.93
2023-02-09T19:17:48.572Z,-2.94
2023-02-09T19:20:55.527Z,-3.04
2023-02-09T19:23:58.305Z,-3.05
2023-02-09T19:27:00.732Z,-2.90
2023-02-09T19:30:03.995Z,-2.88
2023-02-09T19:33:06.441Z,-3.03
2023-02-09T19:36:09.518Z,-3.06
2023-02-09T19:39:12.172Z,-3.04
2023-02-09T19:42:15.512Z,-3.05
2023-02-09T19:45:18.081Z,-3.01
2023-02-09T19:48:20.631Z,-3.09
2023-02-09T19:51:23.208Z,-3.10
2023-02-09T19:54:25.897Z,-3.14
2023-02-09T19:57:28.304Z,-3.25
2023-02-09T20:00:31.846Z,-3.27
2023-02-09T20:03:35.091Z,-3.30
2023-02-09T20:06:37.406Z,-3.37
2023-02-09T20:09:40.145Z,-3.46
2023-02-09T20:15:47.776Z,-3.53
2023-02-09T20:18:51.109Z,-3.59
2023-02-09T20:21:54.116Z,-3.64
2023-02-09T20:24:56.721Z,-3.70
2023-02-09T20:27:59.718Z,-3.68
2023-02-09T20:31:02.402Z,-3.67
2023-02-09T20:34:06.844Z,-3.64
2023-02-09T20:37:09.334Z,-3.69
2023-02-09T20:40:13.026Z,-3.79
2023-02-09T20:43:34.231Z,-3.86
2023-02-09T20:46:55.323Z,-3.89
2023-02-09T20:50:00.598Z,-3.87
2023-02-09T20:53:03.722Z,-3.92
2023-02-09T20:56:06.789Z,-3.93
2023-02-09T20:59:11.381Z,-3.95
2023-02-09T21:02:16.030Z,-3.99
2023-02-09T21:05:18.869Z,-4.02
2023-02-09T21:08:22.970Z,-4.09
2023-02-09T21:11:26.585Z,-4.02
2023-02-09T21:14:41.204Z,-4.11
2023-02-09T21:17:48.791Z,-4.24
2023-02-09T21:20:52.654Z,-4.23
2023-02-09T21:23:55.640Z,-4.27
2023-02-09T21:26:59.873Z,-4.31
2023-02-09T21:30:04.738Z,-4.34
2023-02-09T21:33:07.306Z,-4.24
2023-02-09T21:36:09.944Z,-4.32
2023-02-09T21:39:13.205Z,-4.25
2023-02-09T21:42:28.892Z,-4.42
2023-02-09T21:45:31.644Z,-4.45
2023-02-09T21:48:34.278Z,-4.45
2023-02-09T21:51:36.621Z,-4.44
2023-02-09T21:54:39.411Z,-4.48
2023-02-09T21:57:41.789Z,-4.47
2023-02-09T22:00:44.774Z,-4.43
2023-02-09T22:03:57.082Z,-4.50
2023-02-09T22:06:59.516Z,-4.44
2023-02-09T22:10:02.392Z,-4.60
2023-02-09T22:13:08.448Z,-4.62
2023-02-09T22:16:20.847Z,-4.63
2023-02-09T22:19:24.090Z,-4.60
2023-02-09T22:22:26.554Z,-4.66
2023-02-09T22:25:29.097Z,-4.61
2023-02-09T22:28:35.168Z,-4.66
2023-02-09T22:31:39.020Z,-4.77
2023-02-09T22:34:41.585Z,-4.68
2023-02-09T22:37:44.167Z,-4.66
2023-02-09T22:40:46.965Z,-4.73
2023-02-09T22:43:54.659Z,-4.84
2023-02-09T22:46:57.290Z,-4.92
2023-02-09T22:49:59.768Z,-4.99
2023-02-09T22:53:02.300Z,-4.94
2023-02-09T22:56:04.833Z,-4.92
2023-02-09T22:59:08.094Z,-4.83
2023-02-09T23:02:12.579Z,-4.88
2023-02-09T23:05:15.565Z,-4.96
2023-02-09T23:08:18.133Z,-5.06
2023-02-09T23:11:21.329Z,-5.02
2023-02-09T23:14:23.981Z,-5.08
2023-02-09T23:17:26.722Z,-5.01
2023-02-09T23:20:29.058Z,-5.11
2023-02-09T23:23:32.399Z,-5.09
2023-02-09T23:26:35.324Z,-5.10
2023-02-09T23:29:38.409Z,-5.16
2023-02-09T23:32:41.004Z,-5.10
2023-02-09T23:35:43.915Z,-5.09
2023-02-09T23:38:47.332Z,-5.11
2023-02-09T23:41:50.248Z,-5.21
2023-02-09T23:44:52.863Z,-5.22
2023-02-09T23:47:55.905Z,-5.37
2023-02-09T23:51:11.138Z,-5.34
2023-02-09T23:54:14.091Z,-5.35
2023-02-09T23:57:16.353Z,-5.44
